| time (UTC) | temp C | wind direction | speed KPH | gust KPH | rain 1hr cm | rain 24hr cm | rain mn cm | humidity % | barometer mb |
| 20260906113552 | 21 | 66 | 6.4 | 11.3 | 0.00 | 1.83 | 0.03 | 98 | 1011.6 |
| 20260906113104 | 21 | 78 | 4.8 | 8.0 | 0.00 | 1.83 | 0.03 | 98 | 1011.6 |
| 20260906112550 | 21 | 78 | 3.2 | 8.0 | 0.00 | 1.83 | 0.03 | 98 | 1011.5 |
| 20260906112054 | 21 | 78 | 3.2 | 8.0 | 0.00 | 1.83 | 0.03 | 98 | 1011.5 |
| 20260906111620 | 21 | 78 | 3.2 | 8.0 | 0.00 | 1.83 | 0.03 | 97 | 1011.2 |
| 20260906111053 | 21 | 78 | 1.6 | 8.0 | 0.00 | 1.83 | 0.03 | 98 | 1011.2 |
| 20260906110553 | 21 | 80 | 3.2 | 6.4 | 0.00 | 1.83 | 0.03 | 98 | 1011.0 |
| 20260906110107 | 21 | 80 | 3.2 | 6.4 | 0.00 | 1.83 | 0.03 | 98 | 1011.0 |
| 20260906105554 | 21 | 80 | 3.2 | 6.4 | 0.00 | 1.83 | 0.03 | 98 | 1011.0 |
| 20260906105050 | 21 | 80 | 1.6 | 6.4 | 0.00 | 1.83 | 0.03 | 97 | 1010.9 |
| 20260906104607 | 21 | 80 | 0.0 | 9.7 | 0.00 | 1.83 | 0.03 | 97 | 1010.9 |
| 20260906104051 | 21 | 80 | 1.6 | 11.3 | 0.00 | 1.83 | 0.03 | 97 | 1010.8 |
| 20260906103553 | 21 | 84 | 3.2 | 11.3 | 0.00 | 1.83 | 0.03 | 97 | 1010.9 |
| 20260906103105 | 21 | 64 | 3.2 | 12.9 | 0.00 | 1.83 | 0.03 | 97 | 1010.9 |
| 20260906102551 | 21 | 65 | 4.8 | 12.9 | 0.00 | 1.83 | 0.03 | 97 | 1010.8 |
| 20260906102053 | 21 | 42 | 3.2 | 9.7 | 0.00 | 1.83 | 0.03 | 97 | 1010.7 |
| 20260906101605 | 21 | 53 | 3.2 | 8.0 | 0.00 | 1.83 | 0.03 | 97 | 1010.7 |
| 20260906101053 | 21 | 53 | 1.6 | 8.0 | 0.00 | 1.83 | 0.03 | 97 | 1010.7 |
| 20260906100554 | 21 | 53 | 1.6 | 6.4 | 0.03 | 1.83 | 0.03 | 97 | 1010.6 |
| 20260906100109 | 21 | 60 | 3.2 | 9.7 | 0.03 | 1.83 | 0.03 | 97 | 1010.6 |
| 20260906095556 | 21 | 60 | 4.8 | 9.7 | 0.03 | 1.83 | 0.03 | 97 | 1010.6 |
| 20260906095054 | 21 | 101 | 3.2 | 6.4 | 0.03 | 1.83 | 0.03 | 97 | 1010.6 |
| 20260906094601 | 21 | 140 | 3.2 | 6.4 | 0.03 | 1.83 | 0.03 | 97 | 1010.7 |
| 20260906094054 | 21 | 144 | 0.0 | 8.0 | 0.03 | 1.83 | 0.03 | 97 | 1010.6 |
| 20260906093553 | 21 | 0 | 1.6 | 8.0 | 0.03 | 1.83 | 0.03 | 97 | 1010.4 |
| 20260906093107 | 21 | 144 | 3.2 | 8.0 | 0.03 | 1.83 | 0.03 | 97 | 1010.4 |
| 20260906092552 | 21 | 161 | 3.2 | 6.4 | 0.03 | 1.83 | 0.03 | 97 | 1010.3 |
| 20260906092054 | 21 | 173 | 0.0 | 4.8 | 0.03 | 1.83 | 0.03 | 97 | 1010.3 |
| 20260906091607 | 21 | 0 | 0.0 | 4.8 | 0.03 | 1.83 | 0.03 | 97 | 1010.2 |
| 20260906091053 | 21 | 174 | 1.6 | 3.2 | 0.03 | 1.83 | 0.03 | 97 | 1010.1 |
| 20260906090554 | 21 | 0 | 1.6 | 3.2 | 0.00 | 1.80 | 0.00 | 97 | 1010.0 |
| 20260906090104 | 21 | 174 | 1.6 | 3.2 | 0.00 | 1.80 | 0.00 | 97 | 1010.0 |
| 20260906085556 | 21 | 0 | 0.0 | 3.2 | 0.00 | 1.80 | 0.00 | 97 | 1010.0 |
| 20260906085052 | 21 | 0 | 0.0 | 3.2 | 0.00 | 1.80 | 0.00 | 97 | 1010.0 |
| 20260906084608 | 21 | 174 | 0.0 | 3.2 | 0.00 | 1.80 | 0.00 | 97 | 1009.9 |
| 20260906084052 | 21 | 174 | 0.0 | 4.8 | 0.00 | 1.80 | 0.00 | 97 | 1009.9 |
| 20260906083557 | 21 | 174 | 0.0 | 4.8 | 0.00 | 1.80 | 0.00 | 97 | 1010.0 |
| 20260906083106 | 21 | 0 | 1.6 | 4.8 | 0.00 | 1.80 | 0.00 | 97 | 1010.0 |
| 20260906082553 | 21 | 0 | 0.0 | 0.0 | 0.00 | 1.80 | 0.00 | 97 | 1010.0 |
| 20260906082053 | 21 | 0 | 0.0 | 0.0 | 0.00 | 1.80 | 0.00 | 97 | 1010.0 |
| 20260906081606 | 21 | 0 | 0.0 | 0.0 | 0.00 | 1.80 | 0.00 | 97 | 1009.9 |
| 20260906081057 | 21 | 0 | 0.0 | 0.0 | 0.00 | 1.80 | 0.00 | 97 | 1009.9 |
| 20260906080556 | 21 | 0 | 0.0 | 1.6 | 0.00 | 1.80 | 0.00 | 97 | 1009.9 |
| 20260906080107 | 21 | 0 | 0.0 | 1.6 | 0.00 | 1.80 | 0.00 | 97 | 1009.9 |
| 20260906075554 | 21 | 174 | 0.0 | 4.8 | 0.00 | 1.80 | 0.00 | 97 | 1009.9 |
| 20260906075053 | 21 | 0 | 0.0 | 4.8 | 0.00 | 1.80 | 0.00 | 97 | 1009.8 |
| 20260906074606 | 21 | 174 | 0.0 | 6.4 | 0.00 | 1.80 | 0.00 | 97 | 1009.8 |
| 20260906074052 | 21 | 0 | 1.6 | 8.0 | 0.00 | 1.80 | 0.00 | 97 | 1009.8 |
| 20260906073553 | 21 | 174 | 3.2 | 8.0 | 0.00 | 1.80 | 0.00 | 97 | 1010.0 |
| 20260906073104 | 21 | 171 | 0.0 | 6.4 | 0.00 | 1.80 | 0.00 | 97 | 1010.0 |
| 20260906072553 | 21 | 171 | 1.6 | 6.4 | 0.00 | 1.80 | 0.00 | 97 | 1010.1 |
| 20260906072055 | 21 | 171 | 0.0 | 3.2 | 0.00 | 1.80 | 0.00 | 97 | 1010.2 |
| 20260906071608 | 21 | 171 | 0.0 | 3.2 | 0.00 | 1.80 | 0.00 | 97 | 1010.3 |
| 20260906071053 | 21 | 0 | 1.6 | 3.2 | 0.00 | 1.80 | 0.00 | 97 | 1010.3 |
| 20260906070556 | 21 | 0 | 0.0 | 3.2 | 0.00 | 1.80 | 0.00 | 97 | 1010.2 |
| 20260906070107 | 21 | 0 | 0.0 | 4.8 | 0.00 | 1.80 | 0.00 | 97 | 1010.1 |
| 20260906065553 | 21 | 171 | 1.6 | 6.4 | 0.00 | 1.80 | 0.00 | 97 | 1010.1 |
| 20260906065052 | 21 | 171 | 3.2 | 9.7 | 0.00 | 1.80 | 0.00 | 97 | 1010.1 |
| 20260906064604 | 21 | 171 | 3.2 | 9.7 | 0.00 | 1.80 | 0.00 | 97 | 1010.2 |
| 20260906064053 | 21 | 171 | 6.4 | 9.7 | 0.00 | 1.80 | 0.00 | 97 | 1010.2 |
| 20260906063552 | 21 | 0 | 0.0 | 0.0 | 0.00 | 1.80 | 0.00 | 97 | 1010.2 |
| 20260906063107 | 21 | 0 | 0.0 | 0.0 | 0.00 | 1.80 | 0.00 | 97 | 1010.0 |
| 20260906062552 | 21 | 0 | 0.0 | 0.0 | 0.00 | 1.80 | 0.00 | 97 | 1010.1 |
| 20260906062056 | 21 | 0 | 0.0 | 0.0 | 0.00 | 1.80 | 0.00 | 97 | 1010.1 |
| 20260906061610 | 21 | 0 | 0.0 | 0.0 | 0.00 | 1.80 | 0.00 | 97 | 1010.2 |
| 20260906061053 | 21 | 0 | 0.0 | 0.0 | 0.00 | 1.80 | 0.00 | 97 | 1010.1 |
| 20260906060553 | 21 | 0 | 0.0 | 0.0 | 0.00 | 1.80 | 0.00 | 97 | 1010.1 |
| 20260906060107 | 21 | 0 | 0.0 | 0.0 | 0.00 | 1.80 | 0.00 | 97 | 1010.2 |
| 20260906055553 | 21 | 0 | 0.0 | 0.0 | 0.00 | 1.80 | 0.00 | 97 | 1010.3 |
| 20260906055053 | 21 | 0 | 0.0 | 0.0 | 0.00 | 1.80 | 0.00 | 97 | 1010.2 |
| 20260906054608 | 21 | 0 | 0.0 | 0.0 | 0.00 | 1.80 | 0.00 | 97 | 1010.1 |
| 20260906054053 | 21 | 0 | 0.0 | 0.0 | 0.00 | 1.80 | 0.00 | 97 | 1010.2 |
| 20260906053553 | 21 | 0 | 0.0 | 0.0 | 0.00 | 1.80 | 0.00 | 97 | 1010.2 |
| 20260906053105 | 21 | 0 | 0.0 | 0.0 | 0.00 | 1.80 | 0.00 | 97 | 1010.2 |
| 20260906052552 | 21 | 0 | 0.0 | 0.0 | 0.00 | 1.80 | 0.00 | 97 | 1010.3 |
| 20260906052053 | 21 | 0 | 0.0 | 0.0 | 0.00 | 1.80 | 0.00 | 97 | 1010.5 |
| 20260906051614 | 21 | 0 | 0.0 | 0.0 | 0.00 | 1.80 | 0.00 | 97 | 1010.6 |
| 20260906051052 | 21 | 0 | 0.0 | 0.0 | 0.00 | 1.80 | 0.00 | 97 | 1010.7 |
| 20260906050553 | 21 | 0 | 0.0 | 0.0 | 0.00 | 1.80 | 0.00 | 97 | 1010.9 |
| 20260906050111 | 21 | 0 | 0.0 | 0.0 | 0.00 | 1.80 | 0.00 | 97 | 1010.8 |
| 20260906045553 | 21 | 0 | 0.0 | 0.0 | 0.00 | 1.80 | 0.00 | 97 | 1010.7 |
| 20260906045055 | 21 | 0 | 0.0 | 0.0 | 0.00 | 1.80 | 0.00 | 97 | 1010.8 |
| 20260906044610 | 21 | 0 | 0.0 | 0.0 | 0.00 | 1.80 | 0.00 | 97 | 1010.9 |
| 20260906044052 | 21 | 0 | 0.0 | 0.0 | 0.00 | 1.80 | 0.00 | 96 | 1010.9 |
| 20260906043552 | 21 | 0 | 0.0 | 0.0 | 0.00 | 1.80 | 0.00 | 97 | 1011.0 |
| 20260906043104 | 21 | 0 | 0.0 | 0.0 | 0.00 | 1.80 | 0.00 | 96 | 1011.0 |
| 20260906042553 | 21 | 0 | 0.0 | 0.0 | 0.00 | 1.80 | 0.00 | 96 | 1011.0 |
| 20260906042052 | 21 | 0 | 0.0 | 0.0 | 0.00 | 1.80 | 0.00 | 97 | 1011.0 |
| 20260906041608 | 21 | 0 | 0.0 | 0.0 | 0.00 | 1.80 | 0.00 | 96 | 1011.1 |
| 20260906041053 | 21 | 0 | 0.0 | 0.0 | 0.00 | 1.80 | 0.00 | 96 | 1011.2 |
| 20260906040552 | 21 | 0 | 0.0 | 0.0 | 0.00 | 1.80 | 0.00 | 96 | 1011.0 |
| 20260906040140 | 21 | 0 | 0.0 | 0.0 | 0.00 | 1.80 | 0.00 | 96 | 1011.1 |
| 20260906035551 | 21 | 0 | 0.0 | 0.0 | 0.00 | 1.80 | 1.80 | 96 | 1011.0 |
| 20260906035053 | 21 | 0 | 0.0 | 0.0 | 0.00 | 1.80 | 1.80 | 97 | 1011.0 |
| 20260906034620 | 21 | 0 | 0.0 | 0.0 | 0.00 | 1.80 | 1.80 | 97 | 1011.0 |
| 20260906034052 | 21 | 0 | 0.0 | 0.0 | 0.00 | 1.80 | 1.80 | 97 | 1011.0 |
| 20260906033552 | 21 | 0 | 0.0 | 0.0 | 0.00 | 1.80 | 1.80 | 97 | 1011.1 |
| 20260906033109 | 21 | 0 | 0.0 | 0.0 | 0.00 | 1.80 | 1.80 | 97 | 1011.0 |
| 20260906032552 | 21 | 0 | 0.0 | 0.0 | 0.00 | 1.80 | 1.80 | 96 | 1011.0 |
| 20260906032052 | 21 | 0 | 0.0 | 0.0 | 0.00 | 1.80 | 1.80 | 97 | 1011.0 |
| 20260906031607 | 21 | 0 | 0.0 | 0.0 | 0.00 | 1.80 | 1.80 | 97 | 1011.1 |
| 20260906031052 | 21 | 0 | 0.0 | 0.0 | 0.00 | 1.80 | 1.80 | 97 | 1011.2 |
| 20260906030553 | 21 | 0 | 0.0 | 0.0 | 0.00 | 1.80 | 1.80 | 97 | 1011.1 |
| 20260906030108 | 21 | 0 | 0.0 | 0.0 | 0.00 | 1.80 | 1.80 | 97 | 1011.2 |
| 20260906025553 | 21 | 0 | 0.0 | 0.0 | 0.00 | 1.80 | 1.80 | 97 | 1011.2 |
| 20260906025052 | 21 | 0 | 0.0 | 0.0 | 0.00 | 1.80 | 1.80 | 96 | 1011.3 |
| 20260906024615 | 21 | 0 | 0.0 | 0.0 | 0.00 | 1.80 | 1.80 | 96 | 1011.3 |
| 20260906024053 | 21 | 0 | 0.0 | 0.0 | 0.00 | 1.80 | 1.80 | 96 | 1011.4 |
| 20260906023556 | 21 | 0 | 0.0 | 0.0 | 0.00 | 1.80 | 1.80 | 96 | 1011.3 |
| 20260906023107 | 21 | 0 | 0.0 | 0.0 | 0.00 | 1.80 | 1.80 | 96 | 1011.3 |
| 20260906022552 | 21 | 0 | 0.0 | 0.0 | 0.00 | 1.80 | 1.80 | 96 | 1011.3 |
| 20260906022052 | 21 | 0 | 0.0 | 0.0 | 0.00 | 1.80 | 1.80 | 96 | 1011.4 |
| 20260906021605 | 21 | 0 | 0.0 | 0.0 | 0.00 | 1.80 | 1.80 | 96 | 1011.3 |
| 20260906021054 | 21 | 0 | 0.0 | 0.0 | 0.00 | 1.80 | 1.80 | 96 | 1011.2 |
| 20260906020553 | 21 | 0 | 0.0 | 0.0 | 0.00 | 1.80 | 1.80 | 96 | 1011.1 |
| 20260906020113 | 21 | 0 | 0.0 | 0.0 | 0.00 | 1.80 | 1.80 | 96 | 1011.1 |
| 20260906015552 | 21 | 0 | 0.0 | 0.0 | 0.00 | 1.80 | 1.80 | 96 | 1011.0 |
| 20260906015053 | 21 | 0 | 0.0 | 0.0 | 0.00 | 1.80 | 1.80 | 96 | 1011.1 |
| 20260906014608 | 21 | 0 | 0.0 | 0.0 | 0.00 | 1.80 | 1.80 | 96 | 1011.0 |
| 20260906014052 | 21 | 0 | 0.0 | 0.0 | 0.00 | 1.80 | 1.80 | 96 | 1011.0 |
| 20260906013552 | 21 | 0 | 0.0 | 0.0 | 0.00 | 1.80 | 1.80 | 96 | 1011.0 |
| 20260906013122 | 21 | 0 | 0.0 | 0.0 | 0.00 | 1.80 | 1.80 | 96 | 1010.8 |
| 20260906012553 | 21 | 0 | 0.0 | 0.0 | 0.00 | 1.80 | 1.80 | 96 | 1010.9 |
| 20260906012054 | 21 | 0 | 0.0 | 0.0 | 0.00 | 1.80 | 1.80 | 96 | 1010.9 |
| 20260906011605 | 21 | 0 | 0.0 | 0.0 | 0.00 | 1.80 | 1.80 | 96 | 1011.0 |
| 20260906011055 | 21 | 0 | 0.0 | 0.0 | 0.00 | 1.80 | 1.80 | 96 | 1011.1 |
| 20260906010552 | 21 | 0 | 0.0 | 3.2 | 0.00 | 1.80 | 1.80 | 96 | 1011.3 |
| 20260906010107 | 21 | 0 | 0.0 | 4.8 | 0.00 | 1.80 | 1.80 | 96 | 1011.2 |
| 20260906005554 | 21 | 247 | 1.6 | 4.8 | 0.00 | 1.80 | 1.80 | 96 | 1011.0 |
| 20260906005052 | 21 | 0 | 0.0 | 6.4 | 0.00 | 1.80 | 1.80 | 96 | 1011.0 |
| 20260906004604 | 21 | 246 | 3.2 | 11.3 | 0.00 | 1.80 | 1.80 | 96 | 1011.0 |
| 20260906004052 | 22 | 240 | 4.8 | 11.3 | 0.00 | 1.80 | 1.80 | 96 | 1011.0 |
| 20260906003553 | 22 | 269 | 3.2 | 12.9 | 0.00 | 1.80 | 1.80 | 96 | 1011.1 |
| 20260906003104 | 22 | 257 | 4.8 | 12.9 | 0.00 | 1.80 | 1.80 | 96 | 1011.0 |
| 20260906002556 | 22 | 232 | 6.4 | 14.5 | 0.00 | 1.80 | 1.80 | 96 | 1010.9 |
| 20260906002053 | 22 | 223 | 4.8 | 14.5 | 0.00 | 1.80 | 1.80 | 96 | 1010.8 |
| 20260906001610 | 22 | 193 | 6.4 | 14.5 | 0.00 | 1.80 | 1.80 | 96 | 1010.7 |
| 20260906001052 | 22 | 160 | 3.2 | 8.0 | 0.00 | 1.80 | 1.80 | 96 | 1010.2 |
| 20260906000555 | 22 | 160 | 1.6 | 6.4 | 0.00 | 1.80 | 1.80 | 96 | 1010.0 |
| 20260906000108 | 22 | 160 | 0.0 | 6.4 | 0.00 | 1.80 | 1.80 | 96 | 1009.9 |
| 20260905235554 | 22 | 0 | 0.0 | 6.4 | 0.00 | 1.80 | 1.80 | 96 | 1009.8 |
| 20260905235053 | 22 | 0 | 0.0 | 6.4 | 0.00 | 1.80 | 1.80 | 96 | 1009.8 |
| 20260905234603 | 22 | 91 | 1.6 | 6.4 | 0.00 | 1.80 | 1.80 | 96 | 1009.7 |
| 20260905234053 | 22 | 91 | 3.2 | 6.4 | 0.00 | 1.80 | 1.80 | 96 | 1009.6 |
| 20260905233552 | 22 | 0 | 0.0 | 0.0 | 0.00 | 1.80 | 1.80 | 96 | 1009.5 |
| 20260905233104 | 22 | 0 | 0.0 | 3.2 | 0.00 | 1.80 | 1.80 | 96 | 1009.6 |
| 20260905232552 | 22 | 0 | 0.0 | 3.2 | 0.00 | 1.80 | 1.80 | 96 | 1009.6 |
| 20260905232053 | 22 | 93 | 0.0 | 3.2 | 0.00 | 1.80 | 1.80 | 96 | 1009.9 |
| 20260905231611 | 22 | 0 | 0.0 | 3.2 | 0.00 | 1.80 | 1.80 | 95 | 1009.8 |
| 20260905231053 | 22 | 0 | 0.0 | 6.4 | 0.03 | 1.80 | 1.80 | 96 | 1009.7 |
| 20260905230552 | 22 | 93 | 3.2 | 6.4 | 0.03 | 1.80 | 1.80 | 96 | 1009.4 |
| 20260905230109 | 22 | 0 | 0.0 | 4.8 | 0.05 | 1.80 | 1.80 | 96 | 1009.5 |
| 20260905225553 | 22 | 89 | 0.0 | 4.8 | 0.05 | 1.80 | 1.80 | 96 | 1009.4 |
| 20260905225053 | 22 | 89 | 1.6 | 4.8 | 0.08 | 1.80 | 1.80 | 96 | 1009.4 |
| 20260905224619 | 22 | 88 | 3.2 | 4.8 | 0.08 | 1.80 | 1.80 | 95 | 1009.2 |
| 20260905224052 | 22 | 86 | 3.2 | 4.8 | 0.10 | 1.80 | 1.80 | 95 | 1009.0 |
| 20260905223552 | 22 | 0 | 0.0 | 0.0 | 0.10 | 1.80 | 1.80 | 95 | 1009.0 |
| 20260905223118 | 22 | 0 | 0.0 | 3.2 | 0.10 | 1.80 | 1.80 | 94 | 1008.8 |
| 20260905222553 | 22 | 0 | 0.0 | 6.4 | 0.10 | 1.80 | 1.80 | 94 | 1008.6 |
| 20260905222052 | 22 | 0 | 1.6 | 6.4 | 0.10 | 1.80 | 1.80 | 94 | 1008.3 |
| 20260905221606 | 22 | 302 | 3.2 | 6.4 | 0.10 | 1.80 | 1.80 | 94 | 1008.3 |
| 20260905221053 | 22 | 0 | 3.2 | 12.9 | 0.08 | 1.78 | 1.78 | 94 | 1008.1 |
| 20260905220556 | 22 | 302 | 1.6 | 12.9 | 0.15 | 1.78 | 1.78 | 93 | 1008.5 |
| 20260905220113 | 21 | 300 | 4.8 | 11.3 | 0.23 | 1.75 | 1.75 | 93 | 1009.2 |
| 20260905215553 | 21 | 15 | 1.6 | 11.3 | 0.36 | 1.75 | 1.75 | 92 | 1009.3 |
| 20260905215055 | 21 | 19 | 4.8 | 14.5 | 0.66 | 1.73 | 1.73 | 92 | 1009.3 |
| 20260905214605 | 21 | 15 | 6.4 | 16.1 | 0.99 | 1.73 | 1.73 | 92 | 1009.4 |
| 20260905214053 | 21 | 17 | 6.4 | 16.1 | 1.52 | 1.70 | 1.70 | 92 | 1009.6 |
| 20260905213554 | 21 | 40 | 6.4 | 16.1 | 1.70 | 1.70 | 1.70 | 92 | 1009.2 |
| 20260905213106 | 21 | 113 | 3.2 | 9.7 | 1.70 | 1.70 | 1.70 | 91 | 1008.4 |
| 20260905212553 | 21 | 117 | 1.6 | 14.5 | 1.70 | 1.70 | 1.70 | 91 | 1008.6 |
| 20260905212052 | 21 | 134 | 6.4 | 14.5 | 1.70 | 1.70 | 1.70 | 91 | 1009.4 |
| 20260905211605 | 21 | 188 | 4.8 | 9.7 | 1.70 | 1.70 | 1.70 | 90 | 1010.4 |
| 20260905211052 | 21 | 206 | 4.8 | 20.9 | 1.70 | 1.70 | 1.70 | 89 | 1010.8 |
| 20260905210551 | 21 | 341 | 3.2 | 41.8 | 1.63 | 1.63 | 1.63 | 88 | 1011.7 |
| 20260905210107 | 21 | 253 | 9.7 | 59.5 | 1.52 | 1.52 | 1.52 | 88 | 1012.3 |
| 20260905205556 | 22 | 235 | 20.9 | 59.5 | 1.37 | 1.37 | 1.37 | 87 | 1012.6 |
| 20260905205053 | 22 | 244 | 35.4 | 59.5 | 1.07 | 1.07 | 1.07 | 86 | 1012.3 |
| 20260905204609 | 23 | 327 | 22.5 | 91.7 | 0.71 | 0.71 | 0.71 | 84 | 1011.4 |
| 20260905204052 | 26 | 343 | 35.4 | 91.7 | 0.15 | 0.15 | 0.15 | 75 | 1011.0 |
| 20260905203552 | 32 | 323 | 20.9 | 40.2 | 0.00 | 0.00 | 0.00 | 57 | 1009.9 |
| 20260905203108 | 33 | 281 | 8.0 | 16.1 | 0.00 | 0.00 | 0.00 | 61 | 1008.7 |
| 20260905202554 | 33 | 246 | 4.8 | 14.5 | 0.00 | 0.00 | 0.00 | 61 | 1008.5 |
| 20260905202054 | 34 | 246 | 3.2 | 14.5 | 0.00 | 0.00 | 0.00 | 59 | 1008.4 |
| 20260905201616 | 34 | 237 | 6.4 | 16.1 | 0.00 | 0.00 | 0.00 | 59 | 1008.3 |
| 20260905201052 | 35 | 190 | 3.2 | 16.1 | 0.00 | 0.00 | 0.00 | 58 | 1008.3 |
| 20260905200552 | 35 | 258 | 4.8 | 12.9 | 0.00 | 0.00 | 0.00 | 57 | 1008.2 |
| 20260905200109 | 35 | 261 | 3.2 | 11.3 | 0.00 | 0.00 | 0.00 | 55 | 1008.3 |
| 20260905195553 | 35 | 82 | 1.6 | 11.3 | 0.00 | 0.00 | 0.00 | 55 | 1008.3 |
| 20260905195052 | 35 | 178 | 1.6 | 6.4 | 0.00 | 0.00 | 0.00 | 56 | 1008.5 |
| 20260905194604 | 35 | 207 | 0.0 | 8.0 | 0.00 | 0.00 | 0.00 | 56 | 1008.5 |
| 20260905194052 | 35 | 0 | 1.6 | 8.0 | 0.00 | 0.00 | 0.00 | 57 | 1008.7 |
| 20260905193552 | 35 | 0 | 1.6 | 14.5 | 0.00 | 0.00 | 0.00 | 55 | 1008.8 |
| 20260905193104 | 35 | 254 | 6.4 | 16.1 | 0.00 | 0.00 | 0.00 | 54 | 1008.8 |
| 20260905192553 | 35 | 261 | 6.4 | 19.3 | 0.00 | 0.00 | 0.00 | 53 | 1008.6 |
| 20260905192053 | 35 | 281 | 6.4 | 19.3 | 0.00 | 0.00 | 0.00 | 53 | 1008.5 |
| 20260905191619 | 36 | 225 | 6.4 | 19.3 | 0.00 | 0.00 | 0.00 | 51 | 1008.5 |
| 20260905191052 | 35 | 275 | 4.8 | 16.1 | 0.00 | 0.00 | 0.00 | 52 | 1008.6 |
| 20260905190553 | 35 | 322 | 8.0 | 14.5 | 0.00 | 0.00 | 0.00 | 52 | 1008.7 |
| 20260905190106 | 35 | 216 | 6.4 | 19.3 | 0.00 | 0.00 | 0.00 | 51 | 1008.8 |
| 20260905185552 | 35 | 254 | 8.0 | 19.3 | 0.00 | 0.00 | 0.00 | 54 | 1008.7 |
| 20260905185052 | 36 | 224 | 4.8 | 16.1 | 0.00 | 0.00 | 0.00 | 53 | 1008.9 |
| 20260905184612 | 35 | 210 | 6.4 | 16.1 | 0.00 | 0.00 | 0.00 | 53 | 1008.9 |
| 20260905184052 | 36 | 234 | 1.6 | 14.5 | 0.00 | 0.00 | 0.00 | 51 | 1009.1 |
| 20260905183626 | 35 | 324 | 4.8 | 12.9 | 0.00 | 0.00 | 0.00 | 52 | 1009.0 |
| 20260905183105 | 35 | 305 | 4.8 | 12.9 | 0.00 | 0.00 | 0.00 | 51 | 1009.2 |
| 20260905182553 | 35 | 240 | 4.8 | 19.3 | 0.00 | 0.00 | 0.00 | 54 | 1009.4 |
| 20260905182053 | 35 | 9 | 4.8 | 22.5 | 0.00 | 0.00 | 0.00 | 50 | 1009.5 |
| 20260905181608 | 35 | 232 | 9.7 | 22.5 | 0.00 | 0.00 | 0.00 | 54 | 1009.6 |
| 20260905181052 | 35 | 340 | 4.8 | 22.5 | 0.00 | 0.00 | 0.00 | 52 | 1009.6 |
| 20260905180554 | 35 | 255 | 1.6 | 11.3 | 0.00 | 0.00 | 0.00 | 51 | 1009.7 |
| 20260905180109 | 35 | 255 | 3.2 | 11.3 | 0.00 | 0.00 | 0.00 | 52 | 1009.8 |
| 20260905175552 | 35 | 182 | 3.2 | 19.3 | 0.00 | 0.00 | 0.00 | 55 | 1010.1 |
| 20260905175054 | 35 | 294 | 6.4 | 22.5 | 0.00 | 0.00 | 0.00 | 55 | 1010.1 |
| 20260905174603 | 35 | 281 | 9.7 | 22.5 | 0.00 | 0.00 | 0.00 | 54 | 1010.3 |
| 20260905174052 | 35 | 281 | 8.0 | 17.7 | 0.00 | 0.00 | 0.00 | 55 | 1010.3 |
| 20260905173552 | 34 | 270 | 11.3 | 17.7 | 0.00 | 0.00 | 0.00 | 56 | 1010.4 |
| 20260905173134 | 34 | 254 | 4.8 | 16.1 | 0.00 | 0.00 | 0.00 | 57 | 1010.6 |
| 20260905172553 | 34 | 251 | 6.4 | 16.1 | 0.00 | 0.00 | 0.00 | 58 | 1010.7 |
| 20260905172053 | 34 | 259 | 6.4 | 16.1 | 0.00 | 0.00 | 0.00 | 56 | 1010.7 |
| 20260905171604 | 34 | 298 | 8.0 | 16.1 | 0.00 | 0.00 | 0.00 | 58 | 1010.6 |
| 20260905171052 | 34 | 5 | 8.0 | 14.5 | 0.00 | 0.00 | 0.00 | 57 | 1010.7 |
| 20260905170552 | 34 | 261 | 1.6 | 12.9 | 0.00 | 0.00 | 0.00 | 57 | 1010.8 |
| 20260905170115 | 34 | 252 | 6.4 | 14.5 | 0.00 | 0.00 | 0.00 | 56 | 1010.8 |
| 20260905165552 | 33 | 192 | 8.0 | 14.5 | 0.00 | 0.00 | 0.00 | 56 | 1010.9 |
| 20260905165052 | 33 | 302 | 4.8 | 17.7 | 0.00 | 0.00 | 0.00 | 57 | 1011.0 |
| 20260905164611 | 33 | 302 | 8.0 | 17.7 | 0.00 | 0.00 | 0.00 | 57 | 1011.1 |
| 20260905164051 | 33 | 327 | 8.0 | 17.7 | 0.00 | 0.00 | 0.00 | 58 | 1011.1 |
| 20260905163552 | 33 | 308 | 6.4 | 14.5 | 0.00 | 0.00 | 0.00 | 60 | 1011.2 |
| 20260905163127 | 33 | 232 | 3.2 | 9.7 | 0.00 | 0.00 | 0.00 | 62 | 1011.3 |
| 20260905162553 | 33 | 91 | 3.2 | 11.3 | 0.00 | 0.00 | 0.00 | 63 | 1011.4 |
| 20260905162052 | 33 | 24 | 4.8 | 12.9 | 0.00 | 0.00 | 0.00 | 64 | 1011.5 |
| 20260905161616 | 32 | 329 | 4.8 | 14.5 | 0.00 | 0.00 | 0.00 | 63 | 1011.6 |
| 20260905161052 | 32 | 29 | 8.0 | 14.5 | 0.00 | 0.00 | 0.00 | 63 | 1011.6 |
| 20260905160552 | 32 | 351 | 3.2 | 12.9 | 0.00 | 0.00 | 0.00 | 66 | 1011.7 |
| 20260905160107 | 32 | 36 | 4.8 | 12.9 | 0.00 | 0.00 | 0.00 | 66 | 1011.8 |
| 20260905155552 | 32 | 286 | 6.4 | 12.9 | 0.00 | 0.00 | 0.00 | 66 | 1011.9 |
| 20260905155052 | 32 | 288 | 4.8 | 16.1 | 0.00 | 0.00 | 0.00 | 66 | 1012.0 |
| 20260905154616 | 32 | 0 | 4.8 | 17.7 | 0.00 | 0.00 | 0.00 | 67 | 1011.9 |
| 20260905154055 | 32 | 275 | 8.0 | 17.7 | 0.00 | 0.00 | 0.00 | 67 | 1012.0 |
| 20260905153552 | 32 | 250 | 8.0 | 17.7 | 0.00 | 0.00 | 0.00 | 68 | 1012.0 |
| 20260905153130 | 31 | 342 | 4.8 | 14.5 | 0.00 | 0.00 | 0.00 | 69 | 1012.0 |
| 20260905152553 | 31 | 319 | 4.8 | 14.5 | 0.00 | 0.00 | 0.00 | 69 | 1012.0 |
| 20260905152052 | 31 | 227 | 4.8 | 11.3 | 0.00 | 0.00 | 0.00 | 70 | 1012.0 |
| 20260905151605 | 31 | 17 | 6.4 | 12.9 | 0.00 | 0.00 | 0.00 | 70 | 1012.0 |
| 20260905151051 | 31 | 304 | 4.8 | 12.9 | 0.00 | 0.00 | 0.00 | 70 | 1012.0 |
| 20260905150552 | 31 | 269 | 1.6 | 12.9 | 0.00 | 0.00 | 0.00 | 71 | 1011.9 |
| 20260905150111 | 31 | 257 | 4.8 | 12.9 | 0.00 | 0.00 | 0.00 | 71 | 1011.9 |
| 20260905145554 | 31 | 249 | 6.4 | 14.5 | 0.00 | 0.00 | 0.00 | 72 | 1012.0 |
| 20260905145051 | 30 | 295 | 3.2 | 16.1 | 0.00 | 0.00 | 0.00 | 72 | 1011.9 |
| 20260905144605 | 30 | 273 | 6.4 | 16.1 | 0.00 | 0.00 | 0.00 | 73 | 1012.0 |
| 20260905144052 | 30 | 323 | 6.4 | 14.5 | 0.00 | 0.00 | 0.00 | 73 | 1012.1 |
| 20260905143552 | 30 | 246 | 3.2 | 16.1 | 0.00 | 0.00 | 0.00 | 74 | 1012.0 |
| 20260905143109 | 30 | 252 | 6.4 | 16.1 | 0.00 | 0.00 | 0.00 | 74 | 1012.0 |
| 20260905142555 | 30 | 289 | 4.8 | 11.3 | 0.00 | 0.00 | 0.00 | 75 | 1012.0 |
| 20260905142053 | 29 | 218 | 3.2 | 11.3 | 0.00 | 0.00 | 0.00 | 76 | 1012.0 |
| 20260905141606 | 29 | 21 | 3.2 | 17.7 | 0.00 | 0.00 | 0.00 | 76 | 1012.0 |
| 20260905141053 | 29 | 286 | 6.4 | 17.7 | 0.00 | 0.00 | 0.00 | 77 | 1012.0 |
| 20260905140553 | 28 | 256 | 6.4 | 16.1 | 0.00 | 0.00 | 0.00 | 78 | 1011.9 |
| 20260905140110 | 28 | 261 | 4.8 | 16.1 | 0.00 | 0.00 | 0.00 | 78 | 1012.1 |
| 20260905135552 | 28 | 293 | 6.4 | 16.1 | 0.00 | 0.00 | 0.00 | 78 | 1012.0 |
| 20260905135051 | 28 | 252 | 6.4 | 14.5 | 0.00 | 0.00 | 0.00 | 79 | 1012.1 |
| 20260905134605 | 28 | 263 | 4.8 | 16.1 | 0.00 | 0.00 | 0.00 | 80 | 1012.1 |
| 20260905134052 | 28 | 318 | 9.7 | 16.1 | 0.00 | 0.00 | 0.00 | 80 | 1012.1 |
| 20260905133552 | 28 | 301 | 8.0 | 16.1 | 0.00 | 0.00 | 0.00 | 80 | 1012.3 |
| 20260905133106 | 27 | 15 | 6.4 | 16.1 | 0.00 | 0.00 | 0.00 | 81 | 1012.2 |
| 20260905132552 | 27 | 258 | 8.0 | 16.1 | 0.00 | 0.00 | 0.00 | 81 | 1012.3 |
| 20260905132052 | 27 | 268 | 3.2 | 12.9 | 0.00 | 0.00 | 0.00 | 82 | 1012.3 |
| 20260905131604 | 27 | 240 | 4.8 | 12.9 | 0.00 | 0.00 | 0.00 | 82 | 1012.4 |
| 20260905131052 | 27 | 323 | 4.8 | 12.9 | 0.00 | 0.00 | 0.00 | 82 | 1012.3 |
| 20260905130553 | 27 | 240 | 4.8 | 16.1 | 0.00 | 0.00 | 0.00 | 83 | 1012.3 |
| 20260905130107 | 27 | 265 | 8.0 | 16.1 | 0.00 | 0.00 | 0.00 | 83 | 1012.4 |
| 20260905125552 | 27 | 281 | 8.0 | 14.5 | 0.00 | 0.00 | 0.00 | 83 | 1012.3 |
| 20260905125052 | 27 | 230 | 4.8 | 14.5 | 0.00 | 0.00 | 0.00 | 84 | 1012.5 |
| 20260905124605 | 26 | 242 | 4.8 | 14.5 | 0.00 | 0.00 | 0.00 | 85 | 1012.4 |
| 20260905124052 | 26 | 248 | 8.0 | 19.3 | 0.00 | 0.00 | 0.00 | 85 | 1012.4 |
| 20260905123552 | 26 | 279 | 4.8 | 19.3 | 0.00 | 0.00 | 0.00 | 85 | 1012.4 |
| 20260905123110 | 26 | 261 | 4.8 | 14.5 | 0.00 | 0.00 | 0.00 | 85 | 1012.5 |
| 20260905122552 | 26 | 242 | 6.4 | 19.3 | 0.00 | 0.00 | 0.00 | 86 | 1012.3 |
| 20260905122054 | 26 | 327 | 8.0 | 19.3 | 0.00 | 0.00 | 0.00 | 86 | 1012.4 |
| 20260905121606 | 26 | 252 | 4.8 | 17.7 | 0.00 | 0.00 | 0.00 | 87 | 1012.3 |
| 20260905121052 | 26 | 278 | 6.4 | 16.1 | 0.00 | 0.00 | 0.00 | 87 | 1012.3 |
| 20260905120552 | 25 | 306 | 3.2 | 12.9 | 0.00 | 0.00 | 0.00 | 87 | 1012.3 |
| 20260905120108 | 25 | 244 | 4.8 | 12.9 | 0.00 | 0.00 | 0.00 | 87 | 1012.3 |
| 20260905115552 | 25 | 223 | 3.2 | 14.5 | 0.00 | 0.00 | 0.00 | 88 | 1012.3 |
| 20260905115055 | 25 | 241 | 6.4 | 14.5 | 0.00 | 0.00 | 0.00 | 88 | 1012.2 |
| 20260905114605 | 25 | 360 | 4.8 | 12.9 | 0.00 | 0.00 | 0.00 | 88 | 1012.0 |
| 20260905114052 | 25 | 248 | 4.8 | 12.9 | 0.00 | 0.00 | 0.00 | 89 | 1012.1 |